CWKM 040800Z AUTO 25002KT ////SM NCD M39/M42 A2994
From batch tds/metars/production/2023/2/4/h08_m27_metars.cache.csv.gz
Observed at (about 1 hour ago)
Identifier CWKM
CWKM 040700Z AUTO 24003KT ////SM NCD M40/M43 A2994
From batch tds/metars/production/2023/2/4/h07_m19_metars.cache.csv.gz
Observed at (about 2 hours ago)
Identifier CWKM
CWKM 040600Z AUTO 22004KT ////SM NCD M40/M44 A2994
From batch tds/metars/production/2023/2/4/h06_m24_metars.cache.csv.gz
Observed at (about 3 hours ago)
Identifier CWKM
CWKM 040500Z AUTO 24002KT ////SM NCD M39/M43 A2995
From batch tds/metars/production/2023/2/4/h05_m24_metars.cache.csv.gz
Observed at (about 4 hours ago)
Identifier CWKM
CWKM 040400Z AUTO 29003KT ////SM NCD M39/M43 A2995
From batch tds/metars/production/2023/2/4/h04_m25_metars.cache.csv.gz
Observed at (about 5 hours ago)
Identifier CWKM
CWKM 040300Z AUTO VRB03KT ////SM NCD M39/M43 A2996
From batch tds/metars/production/2023/2/4/h03_m27_metars.cache.csv.gz
Observed at (about 6 hours ago)
Identifier CWKM
CWKM 040200Z AUTO 24003KT ////SM NCD M39/M43 A2997
From batch tds/metars/production/2023/2/4/h02_m20_metars.cache.csv.gz
Observed at (about 7 hours ago)
Identifier CWKM
CWKM 040112Z AUTO 29002KT 270V330 ////SM FEW002 M38/M42 A2998
From batch tds/metars/production/2023/2/4/h01_m29_metars.cache.csv.gz
Observed at (about 8 hours ago)
Identifier CWKM
CWKM 040000Z AUTO VRB02KT ////SM NCD M38/M42 A2998
From batch tds/metars/production/2023/2/4/h00_m25_metars.cache.csv.gz
Observed at (about 9 hours ago)
Identifier CWKM
CWKM 032300Z AUTO VRB03KT ////SM SCT002 M37/M41 A2999
From batch tds/metars/production/2023/2/3/h23_m27_metars.cache.csv.gz
Observed at (about 10 hours ago)
Identifier CWKM
CWKM 032200Z AUTO 00000KT ////SM SCT002 M37/M41 A2999
From batch tds/metars/production/2023/2/3/h22_m28_metars.cache.csv.gz
Observed at (about 11 hours ago)
Identifier CWKM
CWKM 032107Z AUTO VRB03KT ////SM FEW003 M37/M41 A3000
From batch tds/metars/production/2023/2/3/h21_m26_metars.cache.csv.gz
Observed at (about 12 hours ago)
Identifier CWKM
CWKM 032000Z AUTO 10004KT 070V130 ////SM FEW003 M36/M40 A3000
From batch tds/metars/production/2023/2/3/h20_m20_metars.cache.csv.gz
Observed at (about 13 hours ago)
Identifier CWKM
CWKM 031900Z AUTO 10004KT ////SM BKN002 BKN140 M38/M42 A3000
From batch tds/metars/production/2023/2/3/h19_m22_metars.cache.csv.gz
Observed at (about 14 hours ago)
Identifier CWKM
CWKM 031800Z AUTO 10006KT ////SM OVC011 M38/M41 A3000
From batch tds/metars/production/2023/2/3/h18_m26_metars.cache.csv.gz
Observed at (about 15 hours ago)
Identifier CWKM
CWKM 031705Z AUTO 10006KT ////SM BKN011 OVC130 M38/M41 A3000
From batch tds/metars/production/2023/2/3/h17_m20_metars.cache.csv.gz
Observed at (about 16 hours ago)
Identifier CWKM
CWKM 031600Z AUTO 06002KT ////SM BKN010 OVC130 M38/M42 A3000
From batch tds/metars/production/2023/2/3/h16_m26_metars.cache.csv.gz
Observed at (about 17 hours ago)
Identifier CWKM
CWKM 031529Z AUTO 08004KT ////SM SCT012 OVC130 M38/M41 A3000
From batch tds/metars/production/2023/2/3/h15_m51_metars.cache.csv.gz
Observed at (about 18 hours ago)
Identifier CWKM
CWKM 031513Z AUTO 10005KT ////SM BKN012 OVC130 M38/M41 A3001
From batch tds/metars/production/2023/2/3/h15_m26_metars.cache.csv.gz
Observed at (about 18 hours ago)
Identifier CWKM
CWKM 031444Z AUTO 10005KT ////SM FEW011 OVC130 M38/M42 A3001
From batch tds/metars/production/2023/2/3/h14_m53_metars.cache.csv.gz
Observed at (about 19 hours ago)
Identifier CWKM
CWKM 031300Z AUTO 08008KT ////SM SCT140 M38/M42 A3001
From batch tds/metars/production/2023/2/3/h13_m26_metars.cache.csv.gz
Observed at (about 20 hours ago)
Identifier CWKM
CWKM 031200Z AUTO 09009KT ////SM OVC140 M39/M43 A3002
From batch tds/metars/production/2023/2/3/h12_m19_metars.cache.csv.gz
Observed at (about 21 hours ago)
Identifier CWKM
talk